Mount Vernon, WA

3:31 AM PDT on March 31, 2015 (GMT -0700)
Arlington Municipal | | Change Station
CLOSE
Current Station
Airport
Location: Arlington,
Elevation: 138 ft
Nearby Weather Stations

Elev 138 ft 48.16 °N, 122.16 °W | Updated 16 minutes ago

Rain
Rain
45 °F
Feels Like 40 °F
N
9
Wind Variable Wind from WNW

Today
High -- | Low -- °F
--% Chance of Precip.
Yesterday
High -- | Low -- °F
Precip. -- in
6:49 AM 7:38 PM
Waxing Gibbous, 86% visible
Pressure 29.90 in
Visibility 4.0 miles
Clouds Scattered Clouds 600 ft
Mostly Cloudy 1500 ft
Overcast 2800 ft
Windchill 40 °F
Dew Point 39 °F
Humidity 81%
Rainfall 0.24 in
Snow Depth Not available.
UV 0 out of 12
Pollen 9.40 out of 12
Air Quality Not available.
Flu Activity Not available.
METAR KAWO 311015Z AUTO 30008KT 4SM SCT006 BKN015 OVC028 07/04 A2990 RMK AO1

More Conditions Fewer Conditions

Pressure 29.90 in
Visibility 4.0 miles
Clouds Scattered Clouds 600 ft
Mostly Cloudy 1500 ft
Overcast 2800 ft
Windchill 40 °F
Dew Point 39 °F
Humidity 81%
Rainfall 0.24 in
Snow Depth Not available.
UV 0 out of 12
Pollen 9.40 out of 12
Air Quality Not available.
Flu Activity Not available.
METAR KAWO 311015Z AUTO 30008KT 4SM SCT006 BKN015 OVC028 07/04 A2990 RMK AO1

More Conditions Fewer Conditions

10-Day Weather Forecast

Almanac

Astronomy

Mar. 31, 2015 Rise Set
Actual Time
Civil Twilight
Nautical Twilight
Astronomical Twilight
Moon
Length of Visible Light
Length of Day
Tomorrow will be .
, % of the Moon is Illuminated

Today's Extremes

State Highs State Lows

Community

WunderPhotos

Upload Photos

1,809,737 photos uploaded!

WunderBlogs® & News

Nearby

Air Quality

  Air Quality AQ Index Pollutant
Not available.

Snow Depth

Station Depth Elevation

Earthquake Activity

City Distance Mag. Time & Date
Minimum magnitude displayed is 2.5.

Coastal Water Temperatures

Place Temperature

Stations

Nearby Weather Stations

Station Location Temp. Windchill Dew Point Humidity Wind Precip. Elev Updated Type